createdAt,value
2016-05-10T00:00:14.939Z,1006.56
2016-05-10T00:01:14.973Z,1006.6
2016-05-10T00:02:15.007Z,1006.59
2016-05-10T00:03:15.057Z,1006.56
2016-05-10T00:04:15.107Z,1006.57
2016-05-10T00:05:15.124Z,1006.53
2016-05-10T00:06:15.158Z,1006.55
2016-05-10T00:07:15.208Z,1006.55
2016-05-10T00:08:15.242Z,1006.52
2016-05-10T00:09:15.276Z,1006.51
2016-05-10T00:10:15.310Z,1006.52
2016-05-10T00:11:15.360Z,1006.52
2016-05-10T00:12:15.420Z,1006.5
2016-05-10T00:13:15.495Z,1006.53
2016-05-10T00:14:15.571Z,1006.55
2016-05-10T00:15:15.662Z,1006.54
2016-05-10T00:16:15.737Z,1006.52
2016-05-10T00:17:15.794Z,1006.52
2016-05-10T00:18:15.858Z,1006.52
2016-05-10T00:19:15.906Z,1006.55
2016-05-10T00:20:15.955Z,1006.54
2016-05-10T00:21:16.004Z,1006.54
2016-05-10T00:22:16.062Z,1006.53
2016-05-10T00:23:16.101Z,1006.55
2016-05-10T00:24:16.141Z,1006.53
2016-05-10T00:25:16.179Z,1006.52
2016-05-10T00:26:16.234Z,1006.52
2016-05-10T00:27:16.271Z,1006.51
2016-05-10T00:28:16.308Z,1006.5
2016-05-10T00:29:16.360Z,1006.48
2016-05-10T00:30:16.395Z,1006.47
2016-05-10T00:31:16.431Z,1006.49
2016-05-10T00:32:16.465Z,1006.5
2016-05-10T00:33:16.516Z,1006.47
2016-05-10T00:34:16.550Z,1006.47
2016-05-10T00:35:16.586Z,1006.49
2016-05-10T00:36:16.620Z,1006.46
2016-05-10T00:37:16.670Z,1006.44
2016-05-10T00:38:16.705Z,1006.42
2016-05-10T00:39:16.738Z,1006.42
2016-05-10T00:40:16.773Z,1006.41
2016-05-10T00:41:16.822Z,1006.4
2016-05-10T00:42:16.857Z,1006.4
2016-05-10T00:43:16.891Z,1006.38
2016-05-10T00:44:17.252Z,1006.36
2016-05-10T00:45:16.975Z,1006.37
2016-05-10T00:46:17.008Z,1006.36
2016-05-10T00:47:17.043Z,1006.35
2016-05-10T00:48:17.092Z,1006.33
2016-05-10T00:49:17.126Z,1006.32
2016-05-10T00:50:17.160Z,1006.35
2016-05-10T00:51:17.193Z,1006.32
2016-05-10T00:52:17.243Z,1006.32
2016-05-10T00:53:17.277Z,1006.32
2016-05-10T00:54:17.327Z,1006.3
2016-05-10T00:55:17.346Z,1006.33
2016-05-10T00:56:17.426Z,1006.29
2016-05-10T00:57:17.429Z,1006.28
2016-05-10T00:58:17.462Z,1006.29
2016-05-10T00:59:17.496Z,1006.3
2016-05-10T01:00:17.546Z,1006.29
2016-05-10T01:01:17.580Z,1006.24
2016-05-10T01:02:17.614Z,1006.25
2016-05-10T01:03:17.664Z,1006.21
2016-05-10T01:04:17.682Z,1006.22
2016-05-10T01:05:17.731Z,1006.19
2016-05-10T01:06:17.765Z,1006.22
2016-05-10T01:07:17.815Z,1006.21
2016-05-10T01:08:17.849Z,1006.21
2016-05-10T01:09:17.883Z,1006.17
2016-05-10T01:10:17.917Z,1006.17
2016-05-10T01:11:17.966Z,1006.15
2016-05-10T01:12:18.000Z,1006.14
2016-05-10T01:13:18.034Z,1006.14
2016-05-10T01:14:18.069Z,1006.15
2016-05-10T01:15:18.102Z,1006.15
2016-05-10T01:16:18.152Z,1006.14
2016-05-10T01:17:18.186Z,1006.16
2016-05-10T01:18:18.219Z,1006.13
2016-05-10T01:19:18.254Z,1006.13
2016-05-10T01:20:18.303Z,1006.13
2016-05-10T01:21:18.337Z,1006.13
2016-05-10T01:22:18.371Z,1006.13
2016-05-10T01:23:18.421Z,1006.14
2016-05-10T01:24:18.455Z,1006.11
2016-05-10T01:25:18.488Z,1006.09
2016-05-10T01:26:18.523Z,1006.13
2016-05-10T01:27:18.571Z,1006.09
2016-05-10T01:28:18.621Z,1006.06
2016-05-10T01:29:18.640Z,1006.05
2016-05-10T01:30:18.673Z,1006.02
2016-05-10T01:31:18.707Z,1006
2016-05-10T01:32:18.742Z,1006
2016-05-10T01:33:18.792Z,1005.98
2016-05-10T01:34:18.825Z,1005.96
2016-05-10T01:35:18.859Z,1005.98
2016-05-10T01:36:18.909Z,1005.97
2016-05-10T01:37:18.942Z,1005.99
2016-05-10T01:38:18.992Z,1005.97
2016-05-10T01:39:19.011Z,1005.95
2016-05-10T01:40:19.061Z,1005.94
2016-05-10T01:41:19.094Z,1005.96
2016-05-10T01:42:19.128Z,1005.94
2016-05-10T01:43:19.161Z,1005.95
2016-05-10T01:44:19.211Z,1005.91
2016-05-10T01:45:19.245Z,1005.9
2016-05-10T01:46:19.280Z,1005.92
2016-05-10T01:47:19.314Z,1005.91
2016-05-10T01:48:19.347Z,1005.86
2016-05-10T01:49:19.396Z,1005.89
2016-05-10T01:50:19.430Z,1005.87
2016-05-10T01:51:19.465Z,1005.87
2016-05-10T01:52:19.514Z,1005.83
2016-05-10T01:53:19.549Z,1005.84
2016-05-10T01:54:19.582Z,1005.89
2016-05-10T01:55:19.632Z,1005.88
2016-05-10T01:56:19.649Z,1005.84
2016-05-10T01:57:19.700Z,1005.85
2016-05-10T01:58:19.734Z,1005.82
2016-05-10T01:59:20.424Z,1005.77
2016-05-10T02:00:19.801Z,1005.76
2016-05-10T02:01:19.851Z,1005.74
2016-05-10T02:02:19.884Z,1005.7
2016-05-10T02:03:19.965Z,1005.7
2016-05-10T02:04:19.950Z,1005.73
2016-05-10T02:05:19.987Z,1005.72
2016-05-10T02:06:20.037Z,1005.72
2016-05-10T02:07:20.070Z,1005.72
2016-05-10T02:08:20.103Z,1005.69
2016-05-10T02:09:20.138Z,1005.74
2016-05-10T02:10:20.187Z,1005.74
2016-05-10T02:11:20.222Z,1005.69
2016-05-10T02:12:20.256Z,1005.69
2016-05-10T02:13:20.289Z,1005.67
2016-05-10T02:14:20.339Z,1005.71
2016-05-10T02:15:20.372Z,1005.71
2016-05-10T02:16:20.422Z,1005.71
2016-05-10T02:17:20.441Z,1005.68
2016-05-10T02:18:20.475Z,1005.7
2016-05-10T02:19:20.524Z,1005.71
2016-05-10T02:20:20.558Z,1005.71
2016-05-10T02:21:20.592Z,1005.69
2016-05-10T02:22:20.626Z,1005.74
2016-05-10T02:23:20.660Z,1005.74
2016-05-10T02:24:20.710Z,1005.71
2016-05-10T02:25:20.744Z,1005.69
2016-05-10T02:26:20.777Z,1005.71
2016-05-10T02:27:20.827Z,1005.7
2016-05-10T02:28:20.861Z,1005.68
2016-05-10T02:29:20.895Z,1005.68
2016-05-10T02:30:20.929Z,1005.67
2016-05-10T02:31:20.962Z,1005.65
2016-05-10T02:32:20.996Z,1005.62
2016-05-10T02:33:21.031Z,1005.65
2016-05-10T02:34:21.096Z,1005.61
2016-05-10T02:35:21.115Z,1005.61
2016-05-10T02:36:21.148Z,1005.63
2016-05-10T02:37:21.181Z,1005.62
2016-05-10T02:38:21.231Z,1005.64
2016-05-10T02:39:21.265Z,1005.62
2016-05-10T02:40:21.300Z,1005.63
2016-05-10T02:41:21.334Z,1005.62
2016-05-10T02:42:21.383Z,1005.6
2016-05-10T02:43:21.417Z,1005.6
2016-05-10T02:44:21.450Z,1005.59
2016-05-10T02:45:21.486Z,1005.58
2016-05-10T02:46:21.519Z,1005.57
2016-05-10T02:47:21.552Z,1005.56
2016-05-10T02:48:21.603Z,1005.57
2016-05-10T02:49:21.636Z,1005.56
2016-05-10T02:50:21.669Z,1005.57
2016-05-10T02:51:21.705Z,1005.54
2016-05-10T02:52:21.754Z,1005.52
2016-05-10T02:53:21.788Z,1005.49
2016-05-10T02:54:21.822Z,1005.51
2016-05-10T02:55:21.855Z,1005.48
2016-05-10T02:56:21.890Z,1005.47
2016-05-10T02:57:21.938Z,1005.46
2016-05-10T02:58:21.973Z,1005.46
2016-05-10T02:59:22.179Z,1005.44
2016-05-10T03:00:22.040Z,1005.44
2016-05-10T03:01:22.091Z,1005.42
2016-05-10T03:02:22.124Z,1005.45
2016-05-10T03:03:22.159Z,1005.43
2016-05-10T03:04:22.192Z,1005.43
2016-05-10T03:05:22.226Z,1005.41
2016-05-10T03:06:22.260Z,1005.41
2016-05-10T03:07:22.309Z,1005.43
2016-05-10T03:08:22.343Z,1005.4
2016-05-10T03:09:22.378Z,1005.4
2016-05-10T03:10:22.411Z,1005.42
2016-05-10T03:11:22.445Z,1005.42
2016-05-10T03:12:22.495Z,1005.4
2016-05-10T03:13:22.529Z,1005.42
2016-05-10T03:14:22.563Z,1005.4
2016-05-10T03:15:22.612Z,1005.42
2016-05-10T03:16:22.630Z,1005.44
2016-05-10T03:17:22.681Z,1005.43
2016-05-10T03:18:22.714Z,1005.4
2016-05-10T03:19:22.747Z,1005.39
2016-05-10T03:20:22.783Z,1005.41
2016-05-10T03:21:22.816Z,1005.39
2016-05-10T03:22:22.865Z,1005.43
2016-05-10T03:23:22.899Z,1005.35
2016-05-10T03:24:22.933Z,1005.34
2016-05-10T03:25:22.968Z,1005.36
2016-05-10T03:26:23.002Z,1005.37
2016-05-10T03:27:23.051Z,1005.41
2016-05-10T03:28:23.085Z,1005.38
2016-05-10T03:29:23.119Z,1005.35
2016-05-10T03:30:23.168Z,1005.38
2016-05-10T03:31:23.218Z,1005.35
2016-05-10T03:32:23.237Z,1005.36
2016-05-10T03:33:23.270Z,1005.37
2016-05-10T03:34:23.320Z,1005.34
2016-05-10T03:35:23.338Z,1005.34
2016-05-10T03:36:23.387Z,1005.33
2016-05-10T03:37:23.422Z,1005.34
2016-05-10T03:38:23.455Z,1005.37
2016-05-10T03:39:23.489Z,1005.33
2016-05-10T03:40:23.523Z,1005.34
2016-05-10T03:41:23.573Z,1005.3
2016-05-10T03:42:23.607Z,1005.3
2016-05-10T03:43:23.641Z,1005.31
2016-05-10T03:44:23.675Z,1005.3
2016-05-10T03:45:23.709Z,1005.26
2016-05-10T03:46:23.742Z,1005.3
2016-05-10T03:47:23.792Z,1005.31
2016-05-10T03:48:23.826Z,1005.3
2016-05-10T03:49:23.861Z,1005.27
2016-05-10T03:50:23.894Z,1005.28
2016-05-10T03:51:23.927Z,1005.24
2016-05-10T03:52:23.977Z,1005.27
2016-05-10T03:53:24.011Z,1005.27
2016-05-10T03:54:24.046Z,1005.27
2016-05-10T03:55:24.080Z,1005.27
2016-05-10T03:56:24.130Z,1005.28
2016-05-10T03:57:24.163Z,1005.23
2016-05-10T03:58:24.196Z,1005.24
2016-05-10T03:59:24.230Z,1005.26
2016-05-10T04:00:24.265Z,1005.21
2016-05-10T04:01:24.299Z,1005.2
2016-05-10T04:02:24.348Z,1005.22
2016-05-10T04:03:24.382Z,1005.21
2016-05-10T04:04:24.415Z,1005.18
2016-05-10T04:05:24.465Z,1005.21
2016-05-10T04:06:24.484Z,1005.18
2016-05-10T04:07:24.534Z,1005.18
2016-05-10T04:08:24.568Z,1005.14
2016-05-10T04:09:24.601Z,1005.14
2016-05-10T04:10:24.635Z,1005.12
2016-05-10T04:11:24.685Z,1005.18
2016-05-10T04:12:24.719Z,1005.11
2016-05-10T04:13:24.753Z,1005.13
2016-05-10T04:14:24.787Z,1005.13
2016-05-10T04:15:24.836Z,1005.1
2016-05-10T04:16:24.855Z,1005.09
2016-05-10T04:17:24.904Z,1005.11
2016-05-10T04:18:24.938Z,1005.09
2016-05-10T04:19:24.972Z,1005.1
2016-05-10T04:20:25.005Z,1005.08
2016-05-10T04:21:25.039Z,1005.12
2016-05-10T04:22:25.089Z,1005.09
2016-05-10T04:23:25.124Z,1005.09
2016-05-10T04:24:25.158Z,1005.07
2016-05-10T04:25:25.192Z,1005.09
2016-05-10T04:26:25.241Z,1005.06
2016-05-10T04:27:25.274Z,1005.06
2016-05-10T04:28:25.308Z,1005.09
2016-05-10T04:29:25.343Z,1005.1
2016-05-10T04:30:25.377Z,1005.05
2016-05-10T04:31:25.442Z,1005.07
2016-05-10T04:32:25.460Z,1005.05
2016-05-10T04:33:25.493Z,1005.04
2016-05-10T04:34:25.529Z,1005.07
2016-05-10T04:35:25.577Z,1005.1
2016-05-10T04:36:25.627Z,1005.09
2016-05-10T04:37:25.646Z,1005.03
2016-05-10T04:38:25.679Z,1005.06
2016-05-10T04:39:25.713Z,1005.05
2016-05-10T04:40:25.762Z,1005.09
2016-05-10T04:41:25.797Z,1005.04
2016-05-10T04:42:25.831Z,1005.02
2016-05-10T04:43:25.881Z,1005.07
2016-05-10T04:44:25.977Z,1005.08
2016-05-10T04:45:25.948Z,1005.07
2016-05-10T04:46:25.981Z,1005.05
2016-05-10T04:47:26.031Z,1005.04
2016-05-10T04:48:26.066Z,1005.07
2016-05-10T04:49:26.100Z,1005.04
2016-05-10T04:50:26.134Z,1005.12
2016-05-10T04:51:26.183Z,1005.1
2016-05-10T04:52:26.216Z,1005.09
2016-05-10T04:53:26.250Z,1005.1
2016-05-10T04:54:26.285Z,1005.08
2016-05-10T04:55:26.319Z,1005.05
2016-05-10T04:56:26.368Z,1005.04
2016-05-10T04:57:26.403Z,1005.04
2016-05-10T04:58:26.436Z,1005.06
2016-05-10T04:59:26.486Z,1005.04
2016-05-10T05:00:26.520Z,1005.02
2016-05-10T05:01:26.554Z,1005.06
2016-05-10T05:02:26.588Z,1005.02
2016-05-10T05:03:26.637Z,1005.01
2016-05-10T05:04:26.671Z,1004.99
2016-05-10T05:05:26.705Z,1004.99
2016-05-10T05:06:26.739Z,1005.03
2016-05-10T05:07:26.788Z,1005.04
2016-05-10T05:08:26.823Z,1005.04
2016-05-10T05:09:26.856Z,1005.02
2016-05-10T05:10:26.891Z,1004.96
2016-05-10T05:11:26.940Z,1004.97
2016-05-10T05:12:26.989Z,1005.01
2016-05-10T05:13:27.009Z,1005
2016-05-10T05:14:27.042Z,1004.99
2016-05-10T05:15:27.091Z,1005
2016-05-10T05:16:27.126Z,1004.97
2016-05-10T05:17:27.159Z,1004.96
2016-05-10T05:18:27.209Z,1004.95
2016-05-10T05:19:27.242Z,1004.98
2016-05-10T05:20:27.277Z,1004.97
2016-05-10T05:21:27.311Z,1004.95
2016-05-10T05:22:27.360Z,1004.95
2016-05-10T05:23:27.394Z,1004.95
2016-05-10T05:24:27.444Z,1004.91
2016-05-10T05:25:27.478Z,1004.93
2016-05-10T05:26:27.511Z,1004.91
2016-05-10T05:27:27.546Z,1004.92
2016-05-10T05:28:27.594Z,1004.94
2016-05-10T05:29:27.629Z,1004.92
2016-05-10T05:30:27.663Z,1004.95
2016-05-10T05:31:27.696Z,1004.91
2016-05-10T05:32:27.747Z,1004.87
2016-05-10T05:33:27.781Z,1004.87
2016-05-10T05:34:27.815Z,1004.83
2016-05-10T05:35:27.848Z,1004.82
2016-05-10T05:36:27.898Z,1004.84
2016-05-10T05:37:27.932Z,1004.84
2016-05-10T05:38:27.965Z,1004.82
2016-05-10T05:39:28.015Z,1004.82
2016-05-10T05:40:28.049Z,1004.77
2016-05-10T05:41:28.084Z,1004.78
2016-05-10T05:42:28.132Z,1004.81
2016-05-10T05:43:28.167Z,1004.8
2016-05-10T05:44:28.201Z,1004.76
2016-05-10T05:45:28.250Z,1004.76
2016-05-10T05:46:28.284Z,1004.74
2016-05-10T05:47:28.318Z,1004.75
2016-05-10T05:48:28.367Z,1004.79
2016-05-10T05:49:28.402Z,1004.77
2016-05-10T05:50:28.436Z,1004.75
2016-05-10T05:51:28.469Z,1004.72
2016-05-10T05:52:28.519Z,1004.73
2016-05-10T05:53:28.553Z,1004.73
2016-05-10T05:54:28.586Z,1004.72
2016-05-10T05:55:28.636Z,1004.76
2016-05-10T05:56:28.670Z,1004.75
2016-05-10T05:57:28.719Z,1004.75
2016-05-10T05:58:28.754Z,1004.77
2016-05-10T05:59:28.788Z,1004.79
2016-05-10T06:00:28.822Z,1004.79
2016-05-10T06:01:28.855Z,1004.8
2016-05-10T06:02:28.905Z,1004.79
2016-05-10T06:03:28.939Z,1004.77
2016-05-10T06:04:28.974Z,1004.71
2016-05-10T06:05:29.023Z,1004.77
2016-05-10T06:06:29.057Z,1004.77
2016-05-10T06:07:29.107Z,1004.73
2016-05-10T06:08:29.141Z,1004.74
2016-05-10T06:09:29.173Z,1004.68
2016-05-10T06:10:29.207Z,1004.71
2016-05-10T06:11:29.257Z,1004.63
2016-05-10T06:12:29.307Z,1004.67
2016-05-10T06:13:29.326Z,1004.63
2016-05-10T06:14:29.391Z,1004.66
2016-05-10T06:15:29.409Z,1004.6
2016-05-10T06:16:29.442Z,1004.66
2016-05-10T06:17:29.476Z,1004.6
2016-05-10T06:18:29.526Z,1004.61
2016-05-10T06:19:29.561Z,1004.57
2016-05-10T06:20:29.595Z,1004.62
2016-05-10T06:21:29.645Z,1004.62
2016-05-10T06:22:29.678Z,1004.57
2016-05-10T06:23:29.712Z,1004.59
2016-05-10T06:24:29.761Z,1004.68
2016-05-10T06:25:29.795Z,1004.62
2016-05-10T06:26:29.829Z,1004.63
2016-05-10T06:27:29.879Z,1004.66
2016-05-10T06:28:29.913Z,1004.65
2016-05-10T06:29:29.947Z,1004.68
2016-05-10T06:30:29.996Z,1004.64
2016-05-10T06:31:30.031Z,1004.66
2016-05-10T06:32:30.063Z,1004.72
2016-05-10T06:33:30.098Z,1004.71
2016-05-10T06:34:30.147Z,1004.71
2016-05-10T06:35:30.182Z,1004.71
2016-05-10T06:36:30.215Z,1004.73
2016-05-10T06:37:30.266Z,1004.68
2016-05-10T06:38:30.299Z,1004.72
2016-05-10T06:39:30.332Z,1004.72
2016-05-10T06:40:30.382Z,1004.64
2016-05-10T06:41:30.416Z,1004.72
2016-05-10T06:42:30.451Z,1004.63
2016-05-10T06:43:30.501Z,1004.67
2016-05-10T06:44:30.534Z,1004.67
2016-05-10T06:45:30.568Z,1004.64
2016-05-10T06:46:30.618Z,1004.62
2016-05-10T06:47:30.651Z,1004.64
2016-05-10T06:48:30.685Z,1004.64
2016-05-10T06:49:30.735Z,1004.68
2016-05-10T06:50:30.769Z,1004.64
2016-05-10T06:51:30.803Z,1004.69
2016-05-10T06:52:30.853Z,1004.68
2016-05-10T06:53:30.887Z,1004.64
2016-05-10T06:54:30.920Z,1004.64
2016-05-10T06:55:30.969Z,1004.63
2016-05-10T06:56:31.003Z,1004.69
2016-05-10T06:57:31.038Z,1004.64
2016-05-10T06:58:31.087Z,1004.65
2016-05-10T06:59:31.121Z,1004.63
2016-05-10T07:00:31.155Z,1004.59
2016-05-10T07:01:31.204Z,1004.59
2016-05-10T07:02:31.239Z,1004.62
2016-05-10T07:03:31.272Z,1004.61
2016-05-10T07:04:31.322Z,1004.62
2016-05-10T07:05:31.355Z,1004.65
2016-05-10T07:06:31.390Z,1004.64
2016-05-10T07:07:31.440Z,1004.59
2016-05-10T07:08:31.473Z,1004.63
2016-05-10T07:09:31.524Z,1004.61
2016-05-10T07:10:31.557Z,1004.61
2016-05-10T07:11:31.590Z,1004.65
2016-05-10T07:12:31.624Z,1004.66
2016-05-10T07:13:31.674Z,1004.61
2016-05-10T07:14:31.709Z,1004.61
2016-05-10T07:15:31.743Z,1004.62
2016-05-10T07:16:31.792Z,1004.63
2016-05-10T07:17:31.826Z,1004.6
2016-05-10T07:18:31.875Z,1004.62
2016-05-10T07:19:31.910Z,1004.59
2016-05-10T07:20:31.943Z,1004.55
2016-05-10T07:21:31.992Z,1004.58
2016-05-10T07:22:32.026Z,1004.57
2016-05-10T07:23:32.076Z,1004.61
2016-05-10T07:24:32.111Z,1004.59
2016-05-10T07:25:32.160Z,1004.53
2016-05-10T07:26:32.178Z,1004.59
2016-05-10T07:27:32.228Z,1004.58
2016-05-10T07:28:32.261Z,1004.55
2016-05-10T07:29:32.295Z,1004.55
2016-05-10T07:30:32.344Z,1004.58
2016-05-10T07:31:32.379Z,1004.55
2016-05-10T07:32:32.428Z,1004.49
2016-05-10T07:33:32.463Z,1004.53
2016-05-10T07:34:32.497Z,1004.51
2016-05-10T07:35:32.546Z,1004.51
2016-05-10T07:36:32.580Z,1004.53
2016-05-10T07:37:32.613Z,1004.56
2016-05-10T07:38:32.663Z,1004.53
2016-05-10T07:39:32.697Z,1004.54
2016-05-10T07:40:32.746Z,1004.56
2016-05-10T07:41:32.781Z,1004.49
2016-05-10T07:42:32.815Z,1004.54
2016-05-10T07:43:32.865Z,1004.5
2016-05-10T07:44:32.899Z,1004.44
2016-05-10T07:45:32.948Z,1004.48
2016-05-10T07:46:32.982Z,1004.48
2016-05-10T07:47:33.031Z,1004.48
2016-05-10T07:48:33.065Z,1004.5
2016-05-10T07:49:33.099Z,1004.52
2016-05-10T07:50:33.149Z,1004.48
2016-05-10T07:51:33.183Z,1004.5
2016-05-10T07:52:33.217Z,1004.43
2016-05-10T07:53:33.267Z,1004.54
2016-05-10T07:54:33.301Z,1004.52
2016-05-10T07:55:33.350Z,1004.51
2016-05-10T07:56:33.384Z,1004.45
2016-05-10T07:57:33.433Z,1004.45
2016-05-10T07:58:33.467Z,1004.55
2016-05-10T07:59:33.517Z,1004.57
2016-05-10T08:00:33.566Z,1004.57
2016-05-10T08:01:33.600Z,1004.52
2016-05-10T08:02:33.634Z,1004.54
2016-05-10T08:03:33.683Z,1004.51
2016-05-10T08:04:33.718Z,1004.51
2016-05-10T08:05:33.767Z,1004.42
2016-05-10T08:06:33.817Z,1004.51
2016-05-10T08:07:33.851Z,1004.45
2016-05-10T08:08:33.900Z,1004.43
2016-05-10T08:09:33.935Z,1004.46
2016-05-10T08:10:33.984Z,1004.47
2016-05-10T08:11:34.033Z,1004.44
2016-05-10T08:12:34.068Z,1004.47
2016-05-10T08:13:34.117Z,1004.45
2016-05-10T08:14:34.166Z,1004.41
2016-05-10T08:15:34.201Z,1004.39
2016-05-10T08:16:34.250Z,1004.43
2016-05-10T08:17:34.284Z,1004.43
2016-05-10T08:18:34.334Z,1004.45
2016-05-10T08:19:34.384Z,1004.43
2016-05-10T08:20:34.417Z,1004.44
2016-05-10T08:21:34.467Z,1004.44
2016-05-10T08:22:34.517Z,1004.39
2016-05-10T08:23:34.566Z,1004.47
2016-05-10T08:24:34.600Z,1004.43
2016-05-10T08:25:34.649Z,1004.4
2016-05-10T08:26:34.683Z,1004.49
2016-05-10T08:27:34.733Z,1004.43
2016-05-10T08:28:34.783Z,1004.45
2016-05-10T08:29:34.831Z,1004.44
2016-05-10T08:30:35.366Z,1004.47
2016-05-10T08:31:35.041Z,1004.45
2016-05-10T08:32:34.964Z,1004.44
2016-05-10T08:33:35.015Z,1004.45
2016-05-10T08:34:35.049Z,1004.49
2016-05-10T08:35:35.097Z,1004.44
2016-05-10T08:36:35.147Z,1004.46
2016-05-10T08:37:35.182Z,1004.45
2016-05-10T08:38:35.230Z,1004.4
2016-05-10T08:39:35.280Z,1004.41
2016-05-10T08:40:35.330Z,1004.4
2016-05-10T08:41:35.379Z,1004.41
2016-05-10T08:42:35.413Z,1004.42
2016-05-10T08:43:35.463Z,1004.37
2016-05-10T08:44:35.513Z,1004.39
2016-05-10T08:45:35.562Z,1004.41
2016-05-10T08:46:35.596Z,1004.35
2016-05-10T08:47:35.646Z,1004.36
2016-05-10T08:48:35.696Z,1004.38
2016-05-10T08:49:35.745Z,1004.39
2016-05-10T08:50:35.795Z,1004.42
2016-05-10T08:51:35.829Z,1004.35
2016-05-10T08:52:35.879Z,1004.43
2016-05-10T08:53:35.928Z,1004.31
2016-05-10T08:54:35.978Z,1004.4
2016-05-10T08:55:36.027Z,1004.33
2016-05-10T08:56:36.061Z,1004.36
2016-05-10T08:57:36.111Z,1004.35
2016-05-10T08:58:36.159Z,1004.35
2016-05-10T08:59:36.209Z,1004.36
2016-05-10T09:00:36.244Z,1004.33
2016-05-10T09:01:36.308Z,1004.29
2016-05-10T09:02:36.358Z,1004.3
2016-05-10T09:03:36.391Z,1004.36
2016-05-10T09:04:36.441Z,1004.32
2016-05-10T09:05:36.492Z,1004.3
2016-05-10T09:06:36.525Z,1004.36
2016-05-10T09:07:36.575Z,1004.3
2016-05-10T09:08:36.625Z,1004.32
2016-05-10T09:09:36.658Z,1004.24
2016-05-10T09:10:36.708Z,1004.23
2016-05-10T09:11:36.758Z,1004.27
2016-05-10T09:12:36.807Z,1004.21
2016-05-10T09:13:36.857Z,1004.24
2016-05-10T09:14:36.891Z,1004.22
2016-05-10T09:15:37.159Z,1004.2
2016-05-10T09:16:36.990Z,1004.24
2016-05-10T09:17:37.040Z,1004.18
2016-05-10T09:18:37.125Z,1004.18
2016-05-10T09:19:37.217Z,1004.21
2016-05-10T09:20:37.293Z,1004.19
2016-05-10T09:21:37.383Z,1004.23
2016-05-10T09:22:37.474Z,1004.23
2016-05-10T09:23:37.541Z,1004.27
2016-05-10T09:24:37.606Z,1004.24
2016-05-10T09:25:37.671Z,1004.25
2016-05-10T09:26:37.736Z,1004.18
2016-05-10T09:27:37.800Z,1004.16
2016-05-10T09:28:37.840Z,1004.18
2016-05-10T09:29:39.130Z,1004.11
2016-05-10T09:30:37.950Z,1004.09
2016-05-10T09:31:38.006Z,1004.19
2016-05-10T09:32:38.059Z,1004.08
2016-05-10T09:33:38.112Z,1004.17
2016-05-10T09:34:38.163Z,1004.09
2016-05-10T09:35:38.214Z,1004.14
2016-05-10T09:36:38.250Z,1004.13
2016-05-10T09:37:38.318Z,1004.16
2016-05-10T09:38:38.368Z,1004.08
2016-05-10T09:39:38.403Z,1004.12
2016-05-10T09:40:38.453Z,1004.14
2016-05-10T09:41:38.504Z,1004.1
2016-05-10T09:42:38.555Z,1004.1
2016-05-10T09:43:38.588Z,1004.09
2016-05-10T09:44:38.639Z,1004.05
2016-05-10T09:45:38.688Z,1004.12
2016-05-10T09:46:38.754Z,1004.1
2016-05-10T09:47:38.788Z,1004.12
2016-05-10T09:48:38.837Z,1004.12
2016-05-10T09:49:38.887Z,1004.1
2016-05-10T09:50:38.936Z,1004.05
2016-05-10T09:51:38.986Z,1004.08
2016-05-10T09:52:39.020Z,1004.1
2016-05-10T09:53:39.070Z,1004.1
2016-05-10T09:54:39.119Z,1004.11
2016-05-10T09:55:39.169Z,1004.02
2016-05-10T09:56:39.203Z,1004.09
2016-05-10T09:57:39.252Z,1004.06
2016-05-10T09:58:39.303Z,1004.05
2016-05-10T09:59:39.492Z,1004.06
2016-05-10T10:00:39.401Z,1004.02
2016-05-10T10:01:39.450Z,1004.06
2016-05-10T10:02:39.485Z,1004.09
2016-05-10T10:03:39.534Z,1003.99
2016-05-10T10:04:39.583Z,1003.95
2016-05-10T10:05:39.633Z,1004.07
2016-05-10T10:06:39.683Z,1004.02
2016-05-10T10:07:39.716Z,1004.01
2016-05-10T10:08:39.767Z,1004.07
2016-05-10T10:09:39.816Z,1004.06
2016-05-10T10:10:39.866Z,1004.01
2016-05-10T10:11:39.916Z,1004
2016-05-10T10:12:39.965Z,1004.02
2016-05-10T10:13:40.015Z,1003.99
2016-05-10T10:14:40.048Z,1003.99
2016-05-10T10:15:40.098Z,1004
2016-05-10T10:16:40.148Z,1003.97
2016-05-10T10:17:40.196Z,1004
2016-05-10T10:18:40.246Z,1004.01
2016-05-10T10:19:40.295Z,1004
2016-05-10T10:20:40.346Z,1004.03
2016-05-10T10:21:40.379Z,1004.01
2016-05-10T10:22:40.429Z,1004
2016-05-10T10:23:40.478Z,1004.02
2016-05-10T10:24:40.529Z,1004.03
2016-05-10T10:25:40.578Z,1003.99
2016-05-10T10:26:40.612Z,1004.02
2016-05-10T10:27:40.662Z,1004.02
2016-05-10T10:28:40.711Z,1004
2016-05-10T10:29:40.761Z,1003.95
2016-05-10T10:30:40.810Z,1003.95
2016-05-10T10:31:40.859Z,1003.97
2016-05-10T10:32:40.909Z,1003.94
2016-05-10T10:33:40.943Z,1003.95
2016-05-10T10:34:40.992Z,1003.94
2016-05-10T10:35:41.042Z,1003.93
2016-05-10T10:36:41.091Z,1003.9
2016-05-10T10:37:41.141Z,1003.91
2016-05-10T10:38:41.175Z,1003.89
2016-05-10T10:39:41.240Z,1003.93
2016-05-10T10:40:41.275Z,1003.86
2016-05-10T10:41:41.324Z,1003.9
2016-05-10T10:42:41.374Z,1003.89
2016-05-10T10:43:41.424Z,1003.9
2016-05-10T10:44:41.473Z,1003.89
2016-05-10T10:45:41.507Z,1003.87
2016-05-10T10:46:41.557Z,1003.87
2016-05-10T10:47:41.606Z,1003.89
2016-05-10T10:48:41.654Z,1003.87
2016-05-10T10:49:41.690Z,1003.85
2016-05-10T10:50:41.740Z,1003.87
2016-05-10T10:51:41.788Z,1003.88
2016-05-10T10:52:41.838Z,1003.86
2016-05-10T10:53:41.903Z,1003.86
2016-05-10T10:54:41.937Z,1003.88
2016-05-10T10:55:41.986Z,1003.8
2016-05-10T10:56:42.020Z,1003.84
2016-05-10T10:57:42.070Z,1003.87
2016-05-10T10:58:42.120Z,1003.85
2016-05-10T10:59:42.170Z,1003.85
2016-05-10T11:00:42.219Z,1003.81
2016-05-10T11:01:42.253Z,1003.81
2016-05-10T11:02:42.303Z,1003.81
2016-05-10T11:03:42.353Z,1003.76
2016-05-10T11:04:42.402Z,1003.78
2016-05-10T11:05:42.451Z,1003.76
2016-05-10T11:06:42.485Z,1003.79
2016-05-10T11:07:42.535Z,1003.8
2016-05-10T11:08:42.583Z,1003.77
2016-05-10T11:09:42.633Z,1003.78
2016-05-10T11:10:42.668Z,1003.76
2016-05-10T11:11:42.717Z,1003.79
2016-05-10T11:12:42.766Z,1003.76
2016-05-10T11:13:42.816Z,1003.78
2016-05-10T11:14:42.850Z,1003.73
2016-05-10T11:15:42.899Z,1003.76
2016-05-10T11:16:42.949Z,1003.72
2016-05-10T11:17:42.999Z,1003.78
2016-05-10T11:18:43.049Z,1003.76
2016-05-10T11:19:43.098Z,1003.72
2016-05-10T11:20:43.132Z,1003.71
2016-05-10T11:21:43.198Z,1003.71
2016-05-10T11:22:43.232Z,1003.72
2016-05-10T11:23:43.281Z,1003.69
2016-05-10T11:24:43.315Z,1003.69
2016-05-10T11:25:43.365Z,1003.67
2016-05-10T11:26:43.414Z,1003.69
2016-05-10T11:27:43.464Z,1003.66
2016-05-10T11:28:43.513Z,1003.67
2016-05-10T11:29:43.875Z,1003.64
2016-05-10T11:30:43.597Z,1003.63
2016-05-10T11:31:43.645Z,1003.6
2016-05-10T11:32:43.695Z,1003.64
2016-05-10T11:33:43.744Z,1003.67
2016-05-10T11:34:43.778Z,1003.65
2016-05-10T11:35:43.844Z,1003.63
2016-05-10T11:36:43.878Z,1003.63
2016-05-10T11:37:43.927Z,1003.58
2016-05-10T11:38:43.961Z,1003.61
2016-05-10T11:39:44.011Z,1003.65
2016-05-10T11:40:44.061Z,1003.65
2016-05-10T11:41:44.111Z,1003.62
2016-05-10T11:42:44.160Z,1003.6
2016-05-10T11:43:44.193Z,1003.6
2016-05-10T11:44:44.244Z,1003.57
2016-05-10T11:45:44.294Z,1003.58
2016-05-10T11:46:44.327Z,1003.54
2016-05-10T11:47:44.377Z,1003.56
2016-05-10T11:48:44.426Z,1003.49
2016-05-10T11:49:44.476Z,1003.45
2016-05-10T11:50:44.510Z,1003.48
2016-05-10T11:51:44.559Z,1003.5
2016-05-10T11:52:44.609Z,1003.47
2016-05-10T11:53:44.659Z,1003.5
2016-05-10T11:54:44.707Z,1003.43
2016-05-10T11:55:44.742Z,1003.47
2016-05-10T11:56:44.792Z,1003.47
2016-05-10T11:57:44.840Z,1003.42
2016-05-10T11:58:44.890Z,1003.44
2016-05-10T11:59:45.112Z,1003.42
2016-05-10T12:00:44.973Z,1003.4
2016-05-10T12:01:45.023Z,1003.42
2016-05-10T12:02:45.072Z,1003.39
2016-05-10T12:03:45.106Z,1003.38
2016-05-10T12:04:45.156Z,1003.39
2016-05-10T12:05:45.206Z,1003.33
2016-05-10T12:06:45.256Z,1003.33
2016-05-10T12:07:45.305Z,1003.44
2016-05-10T12:08:45.355Z,1003.33